クライストチャーチ の空港の天気 - METARとTAF

クライストチャーチ国際空港 ( NZCH / CHC ) - ニュージーランド クライストチャーチ
飛行場実況気象(Metar)
観測時間06/20 11:00 NZST (06/19 23:00 UTC)
風向・風速南西 1m/s
視程10km以上
天気現象
なし
気温7℃
湿度70%
気圧1020hPa
METARNZCH 192300Z AUTO 22002KT 9999 NCD 07/02 Q1020 BECMG 04010KT
過去の天気等 Google飛行場航空写真 Wunderground天気予報

過去48時間のMETAR

飛行場予報(TAF)
発表時間: 6/20 05:06 NZST (6/19 17:06 UTC)
予報対象時間: 20日6時 NZST ~ 21日6時 NZST
風向・風速不定 1m/s
視程10km以上
なし
20日12時 NZST から
風向・風速北東 5m/s
視程10km以上
全天の8割程度の雲 雲底高度 1520m
20日23時 NZST ~ 21日4時 NZST に一時的に
視程6000m
天気現象
TAF NZCH 191706Z 1918/2018 VRB02KT CAVOK
FM200000 04010KT 9999 BKN050
TEMPO 2011/2016 6000 RA